createdAt,value
2022-08-04T00:00:02.830Z,0.00
2022-08-04T00:01:02.882Z,0.00
2022-08-04T00:02:02.958Z,0.00
2022-08-04T00:03:02.901Z,0.00
2022-08-04T00:04:02.925Z,0.00
2022-08-04T00:05:02.953Z,0.00
2022-08-04T00:06:02.970Z,0.00
2022-08-04T00:07:02.996Z,0.00
2022-08-04T00:08:03.017Z,0.00
2022-08-04T00:09:03.040Z,0.00
2022-08-04T00:10:03.068Z,0.00
2022-08-04T00:11:03.086Z,0.00
2022-08-04T00:12:03.111Z,0.00
2022-08-04T00:13:03.146Z,0.00
2022-08-04T00:14:03.871Z,0.00
2022-08-04T00:15:03.185Z,0.00
2022-08-04T00:16:03.204Z,0.00
2022-08-04T00:17:03.229Z,0.00
2022-08-04T00:18:03.259Z,0.00
2022-08-04T00:19:03.274Z,0.00
2022-08-04T00:20:03.301Z,0.00
2022-08-04T00:21:03.323Z,0.00
2022-08-04T00:22:03.346Z,0.00
2022-08-04T00:23:03.369Z,0.00
2022-08-04T00:24:10.986Z,0.00
2022-08-04T00:25:03.419Z,0.00
2022-08-04T00:26:03.440Z,0.00
2022-08-04T00:27:03.465Z,0.00
2022-08-04T00:28:03.486Z,0.00
2022-08-04T00:29:03.510Z,0.00
2022-08-04T00:30:03.535Z,0.00
2022-08-04T00:31:03.560Z,0.00
2022-08-04T00:32:03.581Z,0.00
2022-08-04T00:33:03.604Z,0.00
2022-08-04T00:34:03.631Z,0.00
2022-08-04T00:35:03.651Z,0.00
2022-08-04T00:36:03.674Z,0.00
2022-08-04T00:37:03.701Z,0.00
2022-08-04T00:38:03.723Z,0.00
2022-08-04T00:39:03.787Z,0.00
2022-08-04T00:40:03.770Z,0.00
2022-08-04T00:41:03.794Z,0.00
2022-08-04T00:42:03.816Z,0.00
2022-08-04T00:43:03.840Z,0.00
2022-08-04T00:44:03.864Z,0.00
2022-08-04T00:45:03.890Z,0.00
2022-08-04T00:46:16.180Z,0.00
2022-08-04T00:47:03.933Z,0.00
2022-08-04T00:48:03.959Z,0.00
2022-08-04T00:49:03.994Z,0.00
2022-08-04T00:50:04.006Z,0.00
2022-08-04T00:51:04.027Z,0.00
2022-08-04T00:52:31.326Z,0.00
2022-08-04T00:53:04.074Z,0.00
2022-08-04T00:54:04.100Z,0.00
2022-08-04T00:55:07.055Z,0.00
2022-08-04T00:56:04.145Z,0.00
2022-08-04T00:57:04.171Z,0.00
2022-08-04T00:58:04.194Z,0.00
2022-08-04T00:59:04.215Z,0.00
2022-08-04T01:00:04.239Z,0.00
2022-08-04T01:01:04.282Z,0.00
2022-08-04T01:02:04.285Z,0.00
2022-08-04T01:03:04.312Z,0.00
2022-08-04T01:04:04.341Z,0.00
2022-08-04T01:05:04.356Z,0.00
2022-08-04T01:06:04.380Z,0.00
2022-08-04T01:07:04.405Z,0.00
2022-08-04T01:08:04.427Z,0.00
2022-08-04T01:09:04.449Z,0.00
2022-08-04T01:10:04.475Z,0.00
2022-08-04T01:11:04.497Z,0.00
2022-08-04T01:12:04.523Z,0.00
2022-08-04T01:13:08.279Z,0.00
2022-08-04T01:14:04.568Z,0.00
2022-08-04T01:15:04.591Z,0.00
2022-08-04T01:16:04.620Z,0.00
2022-08-04T01:17:04.641Z,0.00
2022-08-04T01:18:04.662Z,0.00
2022-08-04T01:19:04.684Z,0.00
2022-08-04T01:20:04.725Z,0.00
2022-08-04T01:21:04.731Z,0.00
2022-08-04T01:22:04.755Z,0.00
2022-08-04T01:23:04.778Z,0.00
2022-08-04T01:24:04.803Z,0.00
2022-08-04T01:25:06.766Z,0.00
2022-08-04T01:26:09.722Z,0.00
2022-08-04T01:27:04.871Z,0.00
2022-08-04T01:28:04.894Z,0.00
2022-08-04T01:29:04.921Z,0.00
2022-08-04T01:30:04.944Z,0.00
2022-08-04T01:31:04.963Z,0.00
2022-08-04T01:32:04.992Z,0.00
2022-08-04T01:33:05.030Z,0.00
2022-08-04T01:34:05.097Z,0.00
2022-08-04T01:35:05.061Z,0.00
2022-08-04T01:36:05.100Z,0.00
2022-08-04T01:37:05.105Z,0.00
2022-08-04T01:38:19.187Z,0.00
2022-08-04T01:39:05.220Z,0.00
2022-08-04T01:40:05.173Z,0.00
2022-08-04T01:41:05.200Z,0.00
2022-08-04T01:42:05.220Z,0.00
2022-08-04T01:43:05.244Z,0.00
2022-08-04T01:44:05.267Z,0.00
2022-08-04T01:45:05.296Z,0.00
2022-08-04T01:46:05.314Z,0.00
2022-08-04T01:47:05.336Z,0.00
2022-08-04T01:48:05.362Z,0.00
2022-08-04T01:49:05.383Z,0.00
2022-08-04T01:50:05.408Z,0.00
2022-08-04T01:51:05.435Z,0.00
2022-08-04T01:52:05.451Z,0.00
2022-08-04T01:53:05.475Z,0.00
2022-08-04T01:54:05.498Z,0.00
2022-08-04T01:55:05.520Z,0.00
2022-08-04T01:56:05.546Z,0.00
2022-08-04T01:57:37.674Z,0.00
2022-08-04T01:58:05.591Z,0.00
2022-08-04T01:59:05.614Z,0.00
2022-08-04T02:00:05.641Z,0.00
2022-08-04T02:01:08.722Z,0.00
2022-08-04T02:02:05.776Z,0.00
2022-08-04T02:03:05.742Z,0.00
2022-08-04T02:04:21.747Z,0.00
2022-08-04T02:05:05.754Z,0.00
2022-08-04T02:06:05.776Z,0.00
2022-08-04T02:07:05.800Z,0.00
2022-08-04T02:08:05.835Z,0.00
2022-08-04T02:09:05.846Z,0.00
2022-08-04T02:10:05.870Z,0.00
2022-08-04T02:11:05.890Z,0.00
2022-08-04T02:12:05.914Z,0.00
2022-08-04T02:13:05.937Z,0.00
2022-08-04T02:14:05.960Z,0.00
2022-08-04T02:15:05.991Z,0.00
2022-08-04T02:16:06.006Z,0.00
2022-08-04T02:17:06.029Z,0.00
2022-08-04T02:18:06.072Z,0.00
2022-08-04T02:19:06.077Z,0.00
2022-08-04T02:20:06.101Z,0.00
2022-08-04T02:21:06.121Z,0.00
2022-08-04T02:22:06.148Z,0.00
2022-08-04T02:23:06.167Z,0.00
2022-08-04T02:24:06.192Z,0.00
2022-08-04T02:25:06.214Z,0.00
2022-08-04T02:26:06.235Z,0.00
2022-08-04T02:27:06.260Z,0.00
2022-08-04T02:28:06.285Z,0.00
2022-08-04T02:29:06.304Z,0.00
2022-08-04T02:30:06.330Z,0.00
2022-08-04T02:31:06.351Z,0.00
2022-08-04T02:32:06.381Z,0.00
2022-08-04T02:33:06.398Z,0.00
2022-08-04T02:34:06.419Z,0.00
2022-08-04T02:35:06.442Z,0.00
2022-08-04T02:36:06.465Z,0.00
2022-08-04T02:37:06.489Z,0.00
2022-08-04T02:38:06.511Z,0.00
2022-08-04T02:39:06.604Z,0.00
2022-08-04T02:40:06.561Z,0.00
2022-08-04T02:41:06.583Z,0.00
2022-08-04T02:42:06.601Z,0.00
2022-08-04T02:43:06.624Z,0.00
2022-08-04T02:44:06.648Z,0.00
2022-08-04T02:45:06.669Z,0.00
2022-08-04T02:46:17.976Z,0.00
2022-08-04T02:47:06.715Z,0.00
2022-08-04T02:48:30.557Z,0.00
2022-08-04T02:49:06.761Z,0.00
2022-08-04T02:50:06.785Z,0.00
2022-08-04T02:51:06.806Z,0.00
2022-08-04T02:52:06.830Z,0.00
2022-08-04T02:53:09.915Z,0.00
2022-08-04T02:54:06.879Z,0.00
2022-08-04T02:55:06.897Z,0.00
2022-08-04T02:56:06.921Z,0.00
2022-08-04T02:57:08.325Z,0.00
2022-08-04T02:58:06.968Z,0.00
2022-08-04T02:59:06.989Z,0.00
2022-08-04T03:00:07.024Z,0.00
2022-08-04T03:01:07.086Z,0.00
2022-08-04T03:02:07.059Z,0.00
2022-08-04T03:03:07.080Z,0.00
2022-08-04T03:04:07.100Z,0.00
2022-08-04T03:05:07.123Z,0.00
2022-08-04T03:06:10.451Z,0.00
2022-08-04T03:07:07.168Z,0.00
2022-08-04T03:08:07.190Z,0.00
2022-08-04T03:09:07.214Z,0.00
2022-08-04T03:10:07.240Z,0.00
2022-08-04T03:11:07.259Z,0.00
2022-08-04T03:12:07.282Z,0.00
2022-08-04T03:13:07.306Z,0.00
2022-08-04T03:14:08.095Z,0.00
2022-08-04T03:15:07.349Z,0.00
2022-08-04T03:16:07.370Z,0.00
2022-08-04T03:17:07.394Z,0.00
2022-08-04T03:18:07.423Z,0.00
2022-08-04T03:19:07.436Z,0.00
2022-08-04T03:20:07.461Z,0.00
2022-08-04T03:21:07.484Z,0.00
2022-08-04T03:22:07.510Z,0.00
2022-08-04T03:23:13.523Z,0.00
2022-08-04T03:24:07.552Z,0.00
2022-08-04T03:25:07.576Z,0.00
2022-08-04T03:26:07.596Z,5.63
2022-08-04T03:27:07.619Z,5.63
2022-08-04T03:28:07.641Z,5.63
2022-08-04T03:29:07.666Z,5.63
2022-08-04T03:30:07.690Z,5.63
2022-08-04T03:31:07.708Z,5.63
2022-08-04T03:32:07.736Z,5.63
2022-08-04T03:33:07.753Z,5.63
2022-08-04T03:34:07.776Z,5.63
2022-08-04T03:35:07.801Z,11.25
2022-08-04T03:36:07.821Z,11.25
2022-08-04T03:37:07.847Z,11.25
2022-08-04T03:38:07.868Z,11.25
2022-08-04T03:39:07.905Z,11.25
2022-08-04T03:40:10.907Z,11.25
2022-08-04T03:41:07.933Z,16.88
2022-08-04T03:42:08.396Z,16.88
2022-08-04T03:43:07.982Z,16.88
2022-08-04T03:44:08.003Z,16.88
2022-08-04T03:45:23.605Z,16.88
2022-08-04T03:46:08.047Z,22.50
2022-08-04T03:47:08.070Z,22.50
2022-08-04T03:48:08.089Z,22.50
2022-08-04T03:49:08.116Z,22.50
2022-08-04T03:50:08.135Z,22.50
2022-08-04T03:51:08.160Z,28.13
2022-08-04T03:52:08.178Z,28.13
2022-08-04T03:53:08.205Z,28.13
2022-08-04T03:54:08.225Z,28.13
2022-08-04T03:55:08.247Z,33.75
2022-08-04T03:56:08.874Z,33.75
2022-08-04T03:57:08.290Z,33.75
2022-08-04T03:58:08.317Z,33.75
2022-08-04T03:59:08.341Z,33.75
2022-08-04T04:00:08.359Z,39.38
2022-08-04T04:01:08.380Z,39.38
2022-08-04T04:02:08.442Z,39.38
2022-08-04T04:03:08.426Z,39.38
2022-08-04T04:04:08.450Z,39.38
2022-08-04T04:05:08.467Z,45.00
2022-08-04T04:06:10.889Z,45.00
2022-08-04T04:07:08.514Z,45.00
2022-08-04T04:08:10.733Z,45.00
2022-08-04T04:09:16.047Z,50.63
2022-08-04T04:10:08.582Z,50.63
2022-08-04T04:11:08.602Z,50.63
2022-08-04T04:12:08.629Z,50.63
2022-08-04T04:13:08.648Z,50.63
2022-08-04T04:14:08.672Z,56.25
2022-08-04T04:15:08.695Z,56.25
2022-08-04T04:16:08.717Z,56.25
2022-08-04T04:17:08.737Z,56.25
2022-08-04T04:18:08.759Z,56.25
2022-08-04T04:19:08.783Z,61.88
2022-08-04T04:20:08.808Z,61.88
2022-08-04T04:21:08.830Z,61.88
2022-08-04T04:22:08.852Z,61.88
2022-08-04T04:23:10.358Z,61.88
2022-08-04T04:24:08.898Z,67.50
2022-08-04T04:25:08.920Z,67.50
2022-08-04T04:26:08.950Z,67.50
2022-08-04T04:27:08.976Z,67.50
2022-08-04T04:28:45.866Z,67.50
2022-08-04T04:29:09.007Z,73.13
2022-08-04T04:30:09.028Z,73.13
2022-08-04T04:31:09.050Z,73.13
2022-08-04T04:32:09.073Z,73.13
2022-08-04T04:33:09.100Z,78.75
2022-08-04T04:34:09.121Z,78.75
2022-08-04T04:35:09.139Z,78.75
2022-08-04T04:36:09.162Z,78.75
2022-08-04T04:37:09.186Z,78.75
2022-08-04T04:38:09.213Z,78.75
2022-08-04T04:39:09.326Z,78.75
2022-08-04T04:40:09.251Z,78.75
2022-08-04T04:41:09.273Z,84.38
2022-08-04T04:42:09.306Z,84.38
2022-08-04T04:43:09.327Z,84.38
2022-08-04T04:44:09.340Z,84.38
2022-08-04T04:45:09.366Z,84.38
2022-08-04T04:46:10.241Z,84.38
2022-08-04T04:47:09.408Z,90.00
2022-08-04T04:48:10.797Z,90.00
2022-08-04T04:49:09.455Z,90.00
2022-08-04T04:50:09.475Z,90.00
2022-08-04T04:51:09.498Z,90.00
2022-08-04T04:52:09.522Z,90.00
2022-08-04T04:53:09.545Z,95.63
2022-08-04T04:54:09.576Z,95.63
2022-08-04T04:55:09.588Z,95.63
2022-08-04T04:56:09.610Z,95.63
2022-08-04T04:57:09.636Z,95.63
2022-08-04T04:58:09.668Z,95.63
2022-08-04T04:59:09.678Z,101.25
2022-08-04T05:00:09.702Z,101.25
2022-08-04T05:01:09.733Z,101.25
2022-08-04T05:02:09.744Z,101.25
2022-08-04T05:03:09.768Z,101.25
2022-08-04T05:04:09.789Z,101.25
2022-08-04T05:05:09.812Z,106.88
2022-08-04T05:06:09.849Z,106.88
2022-08-04T05:07:09.860Z,106.88
2022-08-04T05:08:44.622Z,106.88
2022-08-04T05:09:09.910Z,106.88
2022-08-04T05:10:09.926Z,112.50
2022-08-04T05:11:09.950Z,112.50
2022-08-04T05:14:32.885Z,112.50
2022-08-04T05:14:35.069Z,112.50
2022-08-04T05:14:37.626Z,112.50
2022-08-04T05:15:10.039Z,112.50
2022-08-04T05:16:10.060Z,118.13
2022-08-04T05:17:10.083Z,118.13
2022-08-04T05:18:10.106Z,118.13
2022-08-04T05:19:10.128Z,118.13
2022-08-04T05:20:10.163Z,123.75
2022-08-04T05:21:10.176Z,123.75
2022-08-04T05:22:14.142Z,123.75
2022-08-04T05:23:10.219Z,123.75
2022-08-04T05:24:10.241Z,129.38
2022-08-04T05:25:10.265Z,129.38
2022-08-04T05:26:10.292Z,129.38
2022-08-04T05:27:10.320Z,129.38
2022-08-04T05:28:10.333Z,129.38
2022-08-04T05:29:10.367Z,129.38
2022-08-04T05:30:10.376Z,129.38
2022-08-04T05:31:10.401Z,135.00
2022-08-04T05:32:10.426Z,135.00
2022-08-04T05:33:10.448Z,135.00
2022-08-04T05:34:10.471Z,140.63
2022-08-04T05:35:10.493Z,163.13
2022-08-04T05:36:19.160Z,163.13
2022-08-04T05:37:10.546Z,140.63
2022-08-04T05:38:10.568Z,146.25
2022-08-04T05:39:10.636Z,163.13
2022-08-04T05:40:10.610Z,241.88
2022-08-04T05:41:10.634Z,326.25
2022-08-04T05:42:10.654Z,343.13
2022-08-04T05:43:10.678Z,393.75
2022-08-04T05:44:10.699Z,427.50
2022-08-04T05:45:10.728Z,393.75
2022-08-04T05:46:10.745Z,281.25
2022-08-04T05:47:10.773Z,174.38
2022-08-04T05:48:10.792Z,225.00
2022-08-04T05:49:10.826Z,360.00
2022-08-04T05:50:10.848Z,320.63
2022-08-04T05:51:10.890Z,225.00
2022-08-04T05:52:10.901Z,208.13
2022-08-04T05:53:10.913Z,191.25
2022-08-04T05:54:10.937Z,185.63
2022-08-04T05:55:10.962Z,180.00
2022-08-04T05:56:10.983Z,180.00
2022-08-04T05:57:11.009Z,163.13
2022-08-04T05:58:11.034Z,157.50
2022-08-04T05:59:11.059Z,163.13
2022-08-04T06:00:38.818Z,168.75
2022-08-04T06:01:11.111Z,174.38
2022-08-04T06:02:11.174Z,174.38
2022-08-04T06:03:11.155Z,185.63
2022-08-04T06:04:11.580Z,213.75
2022-08-04T06:05:11.203Z,236.25
2022-08-04T06:06:11.226Z,303.75
2022-08-04T06:07:11.284Z,337.50
2022-08-04T06:08:13.670Z,315.00
2022-08-04T06:09:11.300Z,298.13
2022-08-04T06:10:11.325Z,286.88
2022-08-04T06:11:11.348Z,236.25
2022-08-04T06:12:11.394Z,208.13
2022-08-04T06:13:47.885Z,196.88
2022-08-04T06:14:11.423Z,202.50
2022-08-04T06:15:11.447Z,202.50
2022-08-04T06:16:17.903Z,241.88
2022-08-04T06:17:18.397Z,292.50
2022-08-04T06:18:32.989Z,270.00
2022-08-04T06:20:00.218Z,270.00
2022-08-04T06:20:20.057Z,253.13
2022-08-04T06:21:16.217Z,253.13
2022-08-04T06:22:11.770Z,270.00
2022-08-04T06:23:11.644Z,343.13
2022-08-04T06:24:11.669Z,506.25
2022-08-04T06:25:11.695Z,528.75
2022-08-04T06:26:11.720Z,433.13
2022-08-04T06:27:11.743Z,405.00
2022-08-04T06:28:11.771Z,376.88
2022-08-04T06:29:11.794Z,483.75
2022-08-04T06:30:11.820Z,573.75
2022-08-04T06:32:30.443Z,652.50
2022-08-04T06:32:30.522Z,562.50
2022-08-04T06:33:11.896Z,759.38
2022-08-04T06:34:11.922Z,900.00
2022-08-04T06:35:11.944Z,984.38
2022-08-04T06:36:11.972Z,990.00
2022-08-04T06:37:11.999Z,1001.25
2022-08-04T06:38:12.025Z,1012.50
2022-08-04T06:39:12.087Z,1029.38
2022-08-04T06:40:30.713Z,1035.00
2022-08-04T06:41:12.112Z,1040.63
2022-08-04T06:42:21.687Z,1051.88
2022-08-04T06:43:12.157Z,1063.13
2022-08-04T06:44:12.186Z,1046.25
2022-08-04T06:45:12.213Z,1074.38
2022-08-04T06:46:12.242Z,1091.25
2022-08-04T06:47:13.858Z,1063.13
2022-08-04T06:48:12.298Z,1029.38
2022-08-04T06:49:12.326Z,1023.75
2022-08-04T06:51:29.518Z,961.88
2022-08-04T06:51:32.632Z,990.00
2022-08-04T06:52:12.412Z,1051.88
2022-08-04T06:53:12.443Z,995.63
2022-08-04T06:54:12.469Z,956.25
2022-08-04T06:55:12.500Z,939.38
2022-08-04T06:56:12.524Z,1040.63
2022-08-04T06:57:12.560Z,1057.50
2022-08-04T06:58:12.590Z,1164.38
2022-08-04T06:59:12.616Z,1158.75
2022-08-04T07:00:12.647Z,1181.25
2022-08-04T07:01:12.676Z,1215.00
2022-08-04T07:02:12.800Z,1220.63
2022-08-04T07:03:12.740Z,1237.50
2022-08-04T07:04:12.777Z,1243.13
2022-08-04T07:05:12.797Z,1248.75
2022-08-04T07:06:14.640Z,1260.00
2022-08-04T07:07:12.929Z,1265.63
2022-08-04T07:08:12.888Z,1282.50
2022-08-04T07:09:12.919Z,1288.13
2022-08-04T07:10:12.951Z,1293.75
2022-08-04T07:11:12.983Z,1299.38
2022-08-04T07:12:13.012Z,1305.00
2022-08-04T07:13:13.045Z,1316.25
2022-08-04T07:14:13.078Z,1327.50
2022-08-04T07:15:14.259Z,1333.13
2022-08-04T07:16:13.140Z,1344.38
2022-08-04T07:17:13.227Z,1355.63
2022-08-04T07:18:13.204Z,1361.25
2022-08-04T07:19:17.204Z,1372.50
2022-08-04T07:20:13.269Z,1383.75
2022-08-04T07:21:13.300Z,1383.75
2022-08-04T07:22:18.038Z,1400.63
2022-08-04T07:23:13.366Z,1400.63
2022-08-04T07:24:13.399Z,1400.63
2022-08-04T07:25:13.434Z,1417.50
2022-08-04T07:26:13.659Z,1406.25
2022-08-04T07:27:13.519Z,1417.50
2022-08-04T07:28:13.530Z,1400.63
2022-08-04T07:29:13.561Z,1406.25
2022-08-04T07:30:13.596Z,1428.75
2022-08-04T07:31:34.325Z,1411.88
2022-08-04T07:32:13.662Z,1445.63
2022-08-04T07:33:13.697Z,1473.75
2022-08-04T07:34:21.013Z,1485.00
2022-08-04T07:36:04.546Z,1496.25
2022-08-04T07:36:13.797Z,1513.13
2022-08-04T07:37:13.845Z,1524.38
2022-08-04T07:38:13.864Z,1541.25
2022-08-04T07:39:26.439Z,1546.88
2022-08-04T07:40:13.930Z,1552.50
2022-08-04T07:42:13.999Z,1440.00
2022-08-04T07:43:14.030Z,1518.75
2022-08-04T07:44:14.065Z,1507.50
2022-08-04T07:45:14.100Z,1546.88
2022-08-04T07:46:14.133Z,1473.75
2022-08-04T07:47:14.240Z,1530.00
2022-08-04T07:48:14.204Z,1597.50
2022-08-04T07:49:55.373Z,1614.38
2022-08-04T07:50:14.271Z,1631.25
2022-08-04T07:51:14.307Z,1648.13
2022-08-04T07:52:14.340Z,1648.13
2022-08-04T07:53:53.326Z,1648.13
2022-08-04T07:54:14.411Z,1659.38
2022-08-04T07:55:14.442Z,1665.00
2022-08-04T07:56:14.476Z,1676.25
2022-08-04T07:57:19.208Z,1687.50
2022-08-04T07:58:14.546Z,1698.75
2022-08-04T07:59:14.580Z,1698.75
2022-08-04T08:00:14.618Z,1698.75
2022-08-04T08:01:14.653Z,1710.00
2022-08-04T08:02:14.687Z,1726.88
2022-08-04T08:03:14.782Z,1732.50
2022-08-04T08:04:14.755Z,1738.13
2022-08-04T08:05:14.798Z,1743.75
2022-08-04T08:06:21.066Z,1749.38
2022-08-04T08:07:14.865Z,1755.00
2022-08-04T08:08:14.895Z,1766.25
2022-08-04T08:09:15.014Z,1755.00
2022-08-04T08:10:14.968Z,1777.50
2022-08-04T08:11:15.000Z,1794.38
2022-08-04T08:12:36.576Z,1783.13
2022-08-04T08:13:15.072Z,1805.63
2022-08-04T08:14:15.108Z,1816.88
2022-08-04T08:15:15.889Z,1822.50
2022-08-04T08:16:15.179Z,1828.13
2022-08-04T08:17:15.221Z,1856.25
2022-08-04T08:18:15.251Z,1856.25
2022-08-04T08:19:15.284Z,1845.00
2022-08-04T08:20:15.321Z,1845.00
2022-08-04T08:21:15.357Z,1738.13
2022-08-04T08:22:15.394Z,1378.13
2022-08-04T08:23:15.435Z,1153.13
2022-08-04T08:24:15.465Z,1091.25
2022-08-04T08:25:15.514Z,1046.25
2022-08-04T08:26:15.538Z,1012.50
2022-08-04T08:27:15.573Z,990.00
2022-08-04T08:28:15.606Z,973.13
2022-08-04T08:29:15.648Z,945.00
2022-08-04T08:30:15.684Z,894.38
2022-08-04T08:31:15.711Z,686.25
2022-08-04T08:32:15.758Z,410.63
2022-08-04T08:33:15.785Z,354.38
2022-08-04T08:34:21.669Z,483.75
2022-08-04T08:35:15.853Z,720.00
2022-08-04T08:36:15.886Z,781.88
2022-08-04T08:37:15.922Z,776.25
2022-08-04T08:38:15.957Z,753.75
2022-08-04T08:39:16.041Z,736.88
2022-08-04T08:40:16.024Z,703.13
2022-08-04T08:41:16.057Z,669.38
2022-08-04T08:42:16.091Z,641.25
2022-08-04T08:44:00.491Z,601.88
2022-08-04T08:44:19.340Z,568.13
2022-08-04T08:45:17.902Z,540.00
2022-08-04T08:46:17.435Z,517.50
2022-08-04T08:47:16.258Z,483.75
2022-08-04T08:48:16.290Z,405.00
2022-08-04T08:50:02.048Z,337.50
2022-08-04T08:50:16.355Z,360.00
2022-08-04T08:51:16.409Z,427.50
2022-08-04T08:52:16.420Z,466.88
2022-08-04T08:53:16.453Z,483.75
2022-08-04T08:54:16.485Z,489.38
2022-08-04T08:55:16.519Z,489.38
2022-08-04T08:56:16.559Z,500.63
2022-08-04T08:57:16.593Z,500.63
2022-08-04T08:58:16.612Z,506.25
2022-08-04T08:59:16.645Z,506.25
2022-08-04T09:00:16.690Z,511.88
2022-08-04T09:01:16.750Z,517.50
2022-08-04T09:02:16.747Z,523.13
2022-08-04T09:03:16.774Z,523.13
2022-08-04T09:04:23.869Z,528.75
2022-08-04T09:05:16.835Z,540.00
2022-08-04T09:06:16.867Z,551.25
2022-08-04T09:07:16.904Z,562.50
2022-08-04T09:08:16.928Z,573.75
2022-08-04T09:09:16.974Z,585.00
2022-08-04T09:10:16.993Z,601.88
2022-08-04T09:11:17.024Z,618.75
2022-08-04T09:12:19.220Z,624.38
2022-08-04T09:13:17.086Z,646.88
2022-08-04T09:14:17.118Z,669.38
2022-08-04T09:15:17.150Z,691.88
2022-08-04T09:16:17.181Z,714.38
2022-08-04T09:17:17.211Z,742.50
2022-08-04T09:18:17.245Z,765.00
2022-08-04T09:19:17.705Z,804.38
2022-08-04T09:20:17.309Z,838.13
2022-08-04T09:21:17.345Z,871.88
2022-08-04T09:22:17.371Z,922.50
2022-08-04T09:23:17.401Z,956.25
2022-08-04T09:24:36.715Z,1001.25
2022-08-04T09:25:17.465Z,1046.25
2022-08-04T09:26:17.493Z,1091.25
2022-08-04T09:27:17.528Z,1141.88
2022-08-04T09:28:31.679Z,1046.25
2022-08-04T09:29:17.591Z,641.25
2022-08-04T09:30:17.620Z,438.75
2022-08-04T09:31:17.661Z,793.13
2022-08-04T09:32:17.683Z,1316.25
2022-08-04T09:33:17.716Z,1485.00
2022-08-04T09:34:17.749Z,1569.38
2022-08-04T09:35:17.778Z,1631.25
2022-08-04T09:36:25.753Z,1681.88
2022-08-04T09:37:17.845Z,1749.38
2022-08-04T09:38:17.877Z,1800.00
2022-08-04T09:39:17.982Z,1738.13
2022-08-04T09:40:31.350Z,1800.00
2022-08-04T09:41:30.063Z,1923.75
2022-08-04T09:42:18.003Z,2019.38
2022-08-04T09:43:18.218Z,2053.13
2022-08-04T09:44:49.830Z,2103.75
2022-08-04T09:45:21.277Z,2058.75
2022-08-04T09:46:18.138Z,2036.25
2022-08-04T09:47:18.173Z,2053.13
2022-08-04T09:48:18.208Z,2221.88
2022-08-04T09:49:18.236Z,2261.25
2022-08-04T09:50:18.270Z,2345.63
2022-08-04T09:51:18.301Z,2396.25
2022-08-04T09:52:18.337Z,2362.50
2022-08-04T09:53:18.369Z,2334.38
2022-08-04T09:54:30.497Z,1968.75
2022-08-04T09:55:18.438Z,1395.00
2022-08-04T09:56:18.471Z,1209.38
2022-08-04T09:57:18.507Z,1715.63
2022-08-04T09:58:18.540Z,2283.75
2022-08-04T09:59:18.581Z,2480.63
2022-08-04T10:00:18.618Z,2362.50
2022-08-04T10:01:22.838Z,1681.88
2022-08-04T10:02:18.718Z,1226.25
2022-08-04T10:03:20.370Z,1226.25
2022-08-04T10:04:18.752Z,1805.63
2022-08-04T10:05:18.786Z,2244.38
2022-08-04T10:06:18.891Z,2295.00
2022-08-04T10:07:18.859Z,1951.88
2022-08-04T10:08:18.897Z,1192.50
2022-08-04T10:09:18.932Z,624.38
2022-08-04T10:10:18.968Z,635.63
2022-08-04T10:11:19.003Z,1260.00
2022-08-04T10:12:19.039Z,2041.88
2022-08-04T10:13:19.079Z,2497.50
2022-08-04T10:14:22.772Z,2565.00
2022-08-04T10:15:19.149Z,2587.50
2022-08-04T10:16:19.267Z,2576.25
2022-08-04T10:17:19.400Z,2559.38
2022-08-04T10:18:19.259Z,2604.38
2022-08-04T10:19:19.297Z,2587.50
2022-08-04T10:20:44.774Z,2581.88
2022-08-04T10:21:19.371Z,2593.13
2022-08-04T10:22:30.688Z,2604.38
2022-08-04T10:23:19.456Z,2615.63
2022-08-04T10:24:19.484Z,2621.25
2022-08-04T10:26:03.598Z,2626.88
2022-08-04T10:26:19.561Z,2610.00
2022-08-04T10:27:19.763Z,2593.13
2022-08-04T10:28:19.642Z,2610.00
2022-08-04T10:29:19.682Z,2604.38
2022-08-04T10:30:19.719Z,2593.13
2022-08-04T10:31:19.762Z,2604.38
2022-08-04T10:32:19.799Z,2604.38
2022-08-04T10:33:19.839Z,2565.00
2022-08-04T10:34:19.880Z,2514.38
2022-08-04T10:35:19.919Z,2581.88
2022-08-04T10:36:19.957Z,2576.25
2022-08-04T10:37:20.266Z,2548.13
2022-08-04T10:38:23.999Z,2542.50
2022-08-04T10:39:42.279Z,2542.50
2022-08-04T10:40:20.123Z,2424.38
2022-08-04T10:41:20.167Z,2491.88
2022-08-04T10:42:20.205Z,2536.88
2022-08-04T10:43:20.859Z,2486.25
2022-08-04T10:44:20.288Z,2491.88
2022-08-04T10:45:20.331Z,2520.00
2022-08-04T10:46:20.372Z,2351.25
2022-08-04T10:47:20.661Z,2441.25
2022-08-04T10:48:34.159Z,2503.13
2022-08-04T10:49:21.612Z,2463.75
2022-08-04T10:50:20.538Z,2390.63
2022-08-04T10:51:20.584Z,2446.88
2022-08-04T10:52:20.622Z,2553.75
2022-08-04T10:53:20.665Z,2441.25
2022-08-04T10:54:20.710Z,2441.25
2022-08-04T10:55:20.748Z,2430.00
2022-08-04T10:56:20.792Z,2379.38
2022-08-04T10:57:21.070Z,2306.25
2022-08-04T10:58:20.873Z,2205.00
2022-08-04T10:59:20.914Z,2278.13
2022-08-04T11:00:20.960Z,2081.25
2022-08-04T11:01:59.551Z,2154.38
2022-08-04T11:02:21.045Z,2205.00
2022-08-04T11:03:21.177Z,2137.50
2022-08-04T11:04:27.083Z,2250.00
2022-08-04T11:05:21.171Z,2407.50
2022-08-04T11:06:21.213Z,2345.63
2022-08-04T11:07:21.424Z,2407.50
2022-08-04T11:08:21.627Z,2379.38
2022-08-04T11:09:21.339Z,2368.13
2022-08-04T11:10:21.381Z,2480.63
2022-08-04T11:11:21.424Z,2435.63
2022-08-04T11:12:21.471Z,2407.50
2022-08-04T11:13:22.070Z,2368.13
2022-08-04T11:14:21.552Z,2317.50
2022-08-04T11:15:21.595Z,2441.25
2022-08-04T11:16:21.644Z,2452.50
2022-08-04T11:17:21.861Z,2430.00
2022-08-04T11:18:21.725Z,2430.00
2022-08-04T11:19:21.766Z,2407.50
2022-08-04T11:20:36.954Z,2407.50
2022-08-04T11:21:21.854Z,2373.75
2022-08-04T11:22:21.898Z,2289.38
2022-08-04T11:23:21.943Z,2334.38
2022-08-04T11:24:21.987Z,2317.50
2022-08-04T11:25:22.029Z,2244.38
2022-08-04T11:26:22.073Z,2176.88
2022-08-04T11:27:22.357Z,2103.75
2022-08-04T11:28:22.159Z,2126.25
2022-08-04T11:29:22.204Z,2115.00
2022-08-04T11:30:22.249Z,2115.00
2022-08-04T11:31:22.289Z,2002.50
2022-08-04T11:32:22.332Z,1996.88
2022-08-04T11:33:22.383Z,1940.63
2022-08-04T11:34:22.435Z,1946.25
2022-08-04T11:35:22.469Z,2013.75
2022-08-04T11:36:22.510Z,1912.50
2022-08-04T11:37:22.657Z,2025.00
2022-08-04T11:38:24.111Z,2025.00
2022-08-04T11:39:22.705Z,2053.13
2022-08-04T11:40:22.682Z,1968.75
2022-08-04T11:41:22.727Z,1890.00
2022-08-04T11:42:22.770Z,1861.88
2022-08-04T11:44:01.195Z,1878.75
2022-08-04T11:44:22.855Z,1901.25
2022-08-04T11:45:22.898Z,1788.75
2022-08-04T11:46:22.944Z,1794.38
2022-08-04T11:47:23.242Z,1912.50
2022-08-04T11:48:23.028Z,1974.38
2022-08-04T11:49:23.077Z,1929.38
2022-08-04T11:50:23.116Z,1783.13
2022-08-04T11:51:23.156Z,1743.75
2022-08-04T11:52:23.199Z,2396.25
2022-08-04T11:53:23.244Z,2548.13
2022-08-04T11:54:23.291Z,2964.38
2022-08-04T11:55:23.328Z,2812.50
2022-08-04T11:56:37.207Z,2711.25
2022-08-04T11:57:25.672Z,2469.38
2022-08-04T11:58:23.456Z,2767.50
2022-08-04T11:59:23.494Z,2778.75
2022-08-04T12:00:23.545Z,2598.75
2022-08-04T12:01:23.579Z,2188.13
2022-08-04T12:02:23.657Z,1980.00
2022-08-04T12:03:23.664Z,2463.75
2022-08-04T12:04:23.709Z,2581.88
2022-08-04T12:05:36.000Z,2778.75
2022-08-04T12:06:23.791Z,3048.75
2022-08-04T12:07:40.606Z,3048.75
2022-08-04T12:08:23.876Z,3082.50
2022-08-04T12:09:23.917Z,3436.88
2022-08-04T12:10:40.963Z,3363.75
2022-08-04T12:11:24.001Z,3448.13
2022-08-04T12:12:24.042Z,3256.88
2022-08-04T12:13:24.086Z,2992.50
2022-08-04T12:14:24.130Z,2953.13
2022-08-04T12:15:24.168Z,3003.75
2022-08-04T12:16:27.833Z,2863.13
2022-08-04T12:17:24.254Z,2868.75
2022-08-04T12:18:24.642Z,2525.63
2022-08-04T12:19:24.339Z,3071.25
2022-08-04T12:20:32.020Z,3459.38
2022-08-04T12:21:24.424Z,3796.88
2022-08-04T12:22:25.114Z,3701.25
2022-08-04T12:23:24.520Z,3684.38
2022-08-04T12:24:24.551Z,3487.50
2022-08-04T12:25:24.605Z,3082.50
2022-08-04T12:26:24.636Z,3144.38
2022-08-04T12:27:26.052Z,2981.25
2022-08-04T12:28:24.721Z,2801.25
2022-08-04T12:29:24.767Z,2857.50
2022-08-04T12:30:58.446Z,3183.75
2022-08-04T12:31:24.851Z,2908.13
2022-08-04T12:32:24.895Z,3071.25
2022-08-04T12:34:03.863Z,2683.13
2022-08-04T12:34:24.979Z,2458.13
2022-08-04T12:35:25.021Z,3403.13
2022-08-04T12:36:25.146Z,3712.50